sensor_id;sensor_type;location;lat;lon;timestamp;P1;durP1;ratioP1;P2;durP2;ratioP2
7160;SDS011;3622;53.576;9.978;2024-01-06T00:00:19;3.63;;;3.33;;
7160;SDS011;3622;53.576;9.978;2024-01-06T00:02:48;4.37;;;2.50;;
7160;SDS011;3622;53.576;9.978;2024-01-06T00:05:14;3.03;;;2.63;;
7160;SDS011;3622;53.576;9.978;2024-01-06T00:07:40;6.10;;;4.57;;
7160;SDS011;3622;53.576;9.978;2024-01-06T00:10:06;6.20;;;4.17;;
7160;SDS011;3622;53.576;9.978;2024-01-06T00:12:32;4.03;;;3.33;;
7160;SDS011;3622;53.576;9.978;2024-01-06T00:14:58;6.27;;;3.50;;
7160;SDS011;3622;53.576;9.978;2024-01-06T00:17:24;4.90;;;3.23;;
7160;SDS011;3622;53.576;9.978;2024-01-06T00:19:50;7.43;;;5.33;;
7160;SDS011;3622;53.576;9.978;2024-01-06T00:22:17;9.60;;;5.20;;
7160;SDS011;3622;53.576;9.978;2024-01-06T00:24:43;6.53;;;4.53;;
7160;SDS011;3622;53.576;9.978;2024-01-06T00:27:09;5.43;;;3.87;;
7160;SDS011;3622;53.576;9.978;2024-01-06T00:29:35;3.57;;;2.20;;
7160;SDS011;3622;53.576;9.978;2024-01-06T00:32:01;6.17;;;3.93;;
7160;SDS011;3622;53.576;9.978;2024-01-06T00:34:27;14.23;;;5.10;;
7160;SDS011;3622;53.576;9.978;2024-01-06T00:36:53;9.63;;;4.07;;
7160;SDS011;3622;53.576;9.978;2024-01-06T00:39:19;7.40;;;4.87;;
7160;SDS011;3622;53.576;9.978;2024-01-06T00:41:45;7.50;;;4.30;;
7160;SDS011;3622;53.576;9.978;2024-01-06T00:44:11;3.43;;;2.60;;
7160;SDS011;3622;53.576;9.978;2024-01-06T00:46:38;3.60;;;2.90;;
7160;SDS011;3622;53.576;9.978;2024-01-06T00:49:04;6.00;;;4.77;;
7160;SDS011;3622;53.576;9.978;2024-01-06T00:51:30;8.37;;;4.50;;
7160;SDS011;3622;53.576;9.978;2024-01-06T00:53:56;6.10;;;4.43;;
7160;SDS011;3622;53.576;9.978;2024-01-06T00:56:22;4.23;;;3.53;;
7160;SDS011;3622;53.576;9.978;2024-01-06T00:58:48;6.43;;;4.60;;
7160;SDS011;3622;53.576;9.978;2024-01-06T01:01:14;4.13;;;3.30;;
7160;SDS011;3622;53.576;9.978;2024-01-06T01:03:40;5.63;;;4.43;;
7160;SDS011;3622;53.576;9.978;2024-01-06T01:06:06;8.73;;;4.90;;
7160;SDS011;3622;53.576;9.978;2024-01-06T01:08:33;7.10;;;4.70;;
7160;SDS011;3622;53.576;9.978;2024-01-06T01:10:59;6.60;;;4.10;;
7160;SDS011;3622;53.576;9.978;2024-01-06T01:13:25;8.70;;;4.10;;
7160;SDS011;3622;53.576;9.978;2024-01-06T01:15:51;5.27;;;3.50;;
7160;SDS011;3622;53.576;9.978;2024-01-06T01:18:17;4.30;;;3.90;;
7160;SDS011;3622;53.576;9.978;2024-01-06T01:20:43;5.87;;;3.80;;
7160;SDS011;3622;53.576;9.978;2024-01-06T01:23:09;5.47;;;3.67;;
7160;SDS011;3622;53.576;9.978;2024-01-06T01:25:35;7.53;;;4.77;;
7160;SDS011;3622;53.576;9.978;2024-01-06T01:28:01;4.27;;;3.87;;
7160;SDS011;3622;53.576;9.978;2024-01-06T01:30:27;4.47;;;3.03;;
7160;SDS011;3622;53.576;9.978;2024-01-06T01:32:53;9.77;;;4.40;;
7160;SDS011;3622;53.576;9.978;2024-01-06T01:35:19;5.50;;;4.00;;
7160;SDS011;3622;53.576;9.978;2024-01-06T01:37:45;8.57;;;4.50;;
7160;SDS011;3622;53.576;9.978;2024-01-06T01:40:11;7.10;;;5.33;;
7160;SDS011;3622;53.576;9.978;2024-01-06T01:42:37;5.07;;;4.37;;
7160;SDS011;3622;53.576;9.978;2024-01-06T01:45:03;6.57;;;4.53;;
7160;SDS011;3622;53.576;9.978;2024-01-06T01:47:29;3.30;;;2.97;;
7160;SDS011;3622;53.576;9.978;2024-01-06T01:49:55;5.70;;;4.00;;
7160;SDS011;3622;53.576;9.978;2024-01-06T01:52:22;6.10;;;4.30;;
7160;SDS011;3622;53.576;9.978;2024-01-06T01:54:49;8.10;;;5.63;;
7160;SDS011;3622;53.576;9.978;2024-01-06T01:57:15;10.47;;;4.47;;
7160;SDS011;3622;53.576;9.978;2024-01-06T01:59:42;5.93;;;5.20;;
7160;SDS011;3622;53.576;9.978;2024-01-06T02:02:08;6.60;;;4.77;;
7160;SDS011;3622;53.576;9.978;2024-01-06T02:04:34;8.43;;;5.20;;
7160;SDS011;3622;53.576;9.978;2024-01-06T02:07:00;5.77;;;4.47;;
7160;SDS011;3622;53.576;9.978;2024-01-06T02:09:26;8.17;;;5.60;;
7160;SDS011;3622;53.576;9.978;2024-01-06T02:11:54;6.10;;;4.67;;
7160;SDS011;3622;53.576;9.978;2024-01-06T02:14:20;5.73;;;4.70;;
7160;SDS011;3622;53.576;9.978;2024-01-06T02:16:46;6.87;;;4.17;;
7160;SDS011;3622;53.576;9.978;2024-01-06T02:19:12;9.00;;;5.80;;
7160;SDS011;3622;53.576;9.978;2024-01-06T02:21:42;9.83;;;5.97;;
7160;SDS011;3622;53.576;9.978;2024-01-06T02:24:08;8.30;;;5.70;;
7160;SDS011;3622;53.576;9.978;2024-01-06T02:26:34;7.23;;;5.47;;
7160;SDS011;3622;53.576;9.978;2024-01-06T02:29:00;8.80;;;5.30;;
7160;SDS011;3622;53.576;9.978;2024-01-06T02:31:27;7.23;;;5.37;;
7160;SDS011;3622;53.576;9.978;2024-01-06T02:33:53;6.10;;;5.10;;
7160;SDS011;3622;53.576;9.978;2024-01-06T02:36:19;7.20;;;5.50;;
7160;SDS011;3622;53.576;9.978;2024-01-06T02:38:45;9.07;;;5.47;;
7160;SDS011;3622;53.576;9.978;2024-01-06T02:41:11;6.30;;;4.80;;
7160;SDS011;3622;53.576;9.978;2024-01-06T02:43:37;6.00;;;4.40;;
7160;SDS011;3622;53.576;9.978;2024-01-06T02:46:03;8.40;;;5.60;;
7160;SDS011;3622;53.576;9.978;2024-01-06T02:48:29;7.60;;;5.53;;
7160;SDS011;3622;53.576;9.978;2024-01-06T02:50:55;10.80;;;6.37;;
7160;SDS011;3622;53.576;9.978;2024-01-06T02:53:21;8.00;;;5.43;;
7160;SDS011;3622;53.576;9.978;2024-01-06T02:55:47;7.70;;;4.63;;
7160;SDS011;3622;53.576;9.978;2024-01-06T02:58:13;9.13;;;5.63;;
7160;SDS011;3622;53.576;9.978;2024-01-06T03:00:39;10.90;;;6.60;;
7160;SDS011;3622;53.576;9.978;2024-01-06T03:03:05;6.87;;;4.83;;
7160;SDS011;3622;53.576;9.978;2024-01-06T03:05:31;10.10;;;5.90;;
7160;SDS011;3622;53.576;9.978;2024-01-06T03:07:57;7.97;;;5.70;;
7160;SDS011;3622;53.576;9.978;2024-01-06T03:10:23;7.17;;;4.87;;
7160;SDS011;3622;53.576;9.978;2024-01-06T03:12:49;10.37;;;5.83;;
7160;SDS011;3622;53.576;9.978;2024-01-06T03:15:15;10.23;;;6.47;;
7160;SDS011;3622;53.576;9.978;2024-01-06T03:17:41;10.20;;;5.30;;
7160;SDS011;3622;53.576;9.978;2024-01-06T03:20:07;9.80;;;5.30;;
7160;SDS011;3622;53.576;9.978;2024-01-06T03:22:34;8.10;;;5.50;;
7160;SDS011;3622;53.576;9.978;2024-01-06T03:25:00;10.57;;;6.60;;
7160;SDS011;3622;53.576;9.978;2024-01-06T03:27:27;8.57;;;5.63;;
7160;SDS011;3622;53.576;9.978;2024-01-06T03:29:53;10.77;;;6.47;;
7160;SDS011;3622;53.576;9.978;2024-01-06T03:32:19;10.53;;;6.03;;
7160;SDS011;3622;53.576;9.978;2024-01-06T03:34:45;11.40;;;6.30;;
7160;SDS011;3622;53.576;9.978;2024-01-06T03:37:11;11.73;;;6.30;;
7160;SDS011;3622;53.576;9.978;2024-01-06T03:39:37;5.80;;;3.80;;
7160;SDS011;3622;53.576;9.978;2024-01-06T03:42:03;9.60;;;6.00;;
7160;SDS011;3622;53.576;9.978;2024-01-06T03:44:29;9.60;;;5.73;;
7160;SDS011;3622;53.576;9.978;2024-01-06T03:46:57;14.77;;;6.67;;
7160;SDS011;3622;53.576;9.978;2024-01-06T03:49:23;7.43;;;5.70;;
7160;SDS011;3622;53.576;9.978;2024-01-06T03:51:49;9.40;;;6.37;;
7160;SDS011;3622;53.576;9.978;2024-01-06T03:54:15;11.20;;;6.67;;
7160;SDS011;3622;53.576;9.978;2024-01-06T03:56:41;5.20;;;3.90;;
7160;SDS011;3622;53.576;9.978;2024-01-06T03:59:07;8.73;;;5.33;;
7160;SDS011;3622;53.576;9.978;2024-01-06T04:01:33;7.07;;;4.53;;
7160;SDS011;3622;53.576;9.978;2024-01-06T04:04:03;8.47;;;5.00;;
7160;SDS011;3622;53.576;9.978;2024-01-06T04:06:30;8.00;;;5.40;;
7160;SDS011;3622;53.576;9.978;2024-01-06T04:08:59;9.87;;;6.40;;
7160;SDS011;3622;53.576;9.978;2024-01-06T04:11:25;12.13;;;6.80;;
7160;SDS011;3622;53.576;9.978;2024-01-06T04:13:51;8.87;;;6.10;;
7160;SDS011;3622;53.576;9.978;2024-01-06T04:16:17;11.67;;;6.97;;
7160;SDS011;3622;53.576;9.978;2024-01-06T04:18:43;7.60;;;4.43;;
7160;SDS011;3622;53.576;9.978;2024-01-06T04:21:09;7.63;;;4.50;;
7160;SDS011;3622;53.576;9.978;2024-01-06T04:23:36;12.57;;;7.03;;
7160;SDS011;3622;53.576;9.978;2024-01-06T04:26:02;12.83;;;6.67;;
7160;SDS011;3622;53.576;9.978;2024-01-06T04:28:29;11.13;;;5.50;;
7160;SDS011;3622;53.576;9.978;2024-01-06T04:30:55;7.07;;;5.10;;
7160;SDS011;3622;53.576;9.978;2024-01-06T04:33:21;8.80;;;5.37;;
7160;SDS011;3622;53.576;9.978;2024-01-06T04:35:47;9.03;;;5.43;;
7160;SDS011;3622;53.576;9.978;2024-01-06T04:38:15;10.70;;;5.03;;
7160;SDS011;3622;53.576;9.978;2024-01-06T04:40:41;10.73;;;6.10;;
7160;SDS011;3622;53.576;9.978;2024-01-06T04:43:07;9.37;;;5.57;;
7160;SDS011;3622;53.576;9.978;2024-01-06T04:45:33;12.30;;;6.13;;
7160;SDS011;3622;53.576;9.978;2024-01-06T04:47:59;6.63;;;4.50;;
7160;SDS011;3622;53.576;9.978;2024-01-06T04:50:25;11.77;;;6.40;;
7160;SDS011;3622;53.576;9.978;2024-01-06T04:52:51;10.80;;;5.87;;
7160;SDS011;3622;53.576;9.978;2024-01-06T04:55:17;8.33;;;5.60;;
7160;SDS011;3622;53.576;9.978;2024-01-06T04:57:43;7.17;;;5.17;;
7160;SDS011;3622;53.576;9.978;2024-01-06T05:00:09;10.50;;;6.07;;
7160;SDS011;3622;53.576;9.978;2024-01-06T05:02:35;8.80;;;5.70;;
7160;SDS011;3622;53.576;9.978;2024-01-06T05:05:01;10.30;;;6.30;;
7160;SDS011;3622;53.576;9.978;2024-01-06T05:07:27;8.67;;;5.67;;
7160;SDS011;3622;53.576;9.978;2024-01-06T05:09:53;9.70;;;5.47;;
7160;SDS011;3622;53.576;9.978;2024-01-06T05:12:19;8.10;;;5.60;;
7160;SDS011;3622;53.576;9.978;2024-01-06T05:14:45;11.20;;;6.40;;
7160;SDS011;3622;53.576;9.978;2024-01-06T05:17:11;7.27;;;4.13;;
7160;SDS011;3622;53.576;9.978;2024-01-06T05:19:37;13.67;;;7.37;;
7160;SDS011;3622;53.576;9.978;2024-01-06T05:22:03;11.33;;;6.30;;
7160;SDS011;3622;53.576;9.978;2024-01-06T05:24:29;10.47;;;6.37;;
7160;SDS011;3622;53.576;9.978;2024-01-06T05:26:55;11.07;;;6.50;;
7160;SDS011;3622;53.576;9.978;2024-01-06T05:29:21;11.47;;;7.13;;
7160;SDS011;3622;53.576;9.978;2024-01-06T05:31:47;6.20;;;5.37;;
7160;SDS011;3622;53.576;9.978;2024-01-06T05:34:14;11.73;;;6.57;;
7160;SDS011;3622;53.576;9.978;2024-01-06T05:36:40;10.30;;;5.70;;
7160;SDS011;3622;53.576;9.978;2024-01-06T05:39:06;11.47;;;5.30;;
7160;SDS011;3622;53.576;9.978;2024-01-06T05:41:38;12.97;;;5.90;;
7160;SDS011;3622;53.576;9.978;2024-01-06T05:44:05;8.43;;;5.47;;
7160;SDS011;3622;53.576;9.978;2024-01-06T05:46:31;13.33;;;7.30;;
7160;SDS011;3622;53.576;9.978;2024-01-06T05:48:56;9.47;;;6.03;;
7160;SDS011;3622;53.576;9.978;2024-01-06T05:51:24;7.63;;;4.87;;
7160;SDS011;3622;53.576;9.978;2024-01-06T05:53:50;10.47;;;6.37;;
7160;SDS011;3622;53.576;9.978;2024-01-06T05:56:23;10.63;;;6.60;;
7160;SDS011;3622;53.576;9.978;2024-01-06T05:58:50;12.87;;;6.63;;
7160;SDS011;3622;53.576;9.978;2024-01-06T06:01:16;9.80;;;6.30;;
7160;SDS011;3622;53.576;9.978;2024-01-06T06:03:42;11.03;;;6.20;;
7160;SDS011;3622;53.576;9.978;2024-01-06T06:06:08;13.77;;;6.77;;
7160;SDS011;3622;53.576;9.978;2024-01-06T06:08:34;16.57;;;7.03;;
7160;SDS011;3622;53.576;9.978;2024-01-06T06:11:00;9.40;;;5.33;;
7160;SDS011;3622;53.576;9.978;2024-01-06T06:13:29;10.47;;;6.50;;
7160;SDS011;3622;53.576;9.978;2024-01-06T06:15:55;16.63;;;8.23;;
7160;SDS011;3622;53.576;9.978;2024-01-06T06:18:21;13.30;;;6.90;;
7160;SDS011;3622;53.576;9.978;2024-01-06T06:20:47;12.27;;;6.53;;
7160;SDS011;3622;53.576;9.978;2024-01-06T06:23:13;14.53;;;7.77;;
7160;SDS011;3622;53.576;9.978;2024-01-06T06:25:39;12.00;;;7.30;;
7160;SDS011;3622;53.576;9.978;2024-01-06T06:28:05;13.10;;;7.43;;
7160;SDS011;3622;53.576;9.978;2024-01-06T06:30:31;15.37;;;7.13;;
7160;SDS011;3622;53.576;9.978;2024-01-06T06:32:57;13.13;;;7.37;;
7160;SDS011;3622;53.576;9.978;2024-01-06T06:35:24;13.60;;;8.10;;
7160;SDS011;3622;53.576;9.978;2024-01-06T06:37:50;15.57;;;8.07;;
7160;SDS011;3622;53.576;9.978;2024-01-06T06:40:16;10.30;;;6.60;;
7160;SDS011;3622;53.576;9.978;2024-01-06T06:42:42;12.13;;;6.33;;
7160;SDS011;3622;53.576;9.978;2024-01-06T06:45:08;12.97;;;7.70;;
7160;SDS011;3622;53.576;9.978;2024-01-06T06:47:36;12.93;;;6.70;;
7160;SDS011;3622;53.576;9.978;2024-01-06T06:50:02;11.50;;;7.27;;
7160;SDS011;3622;53.576;9.978;2024-01-06T06:52:28;9.80;;;6.70;;
7160;SDS011;3622;53.576;9.978;2024-01-06T06:54:54;13.17;;;8.00;;
7160;SDS011;3622;53.576;9.978;2024-01-06T06:57:20;14.50;;;7.50;;
7160;SDS011;3622;53.576;9.978;2024-01-06T06:59:46;16.50;;;7.93;;
7160;SDS011;3622;53.576;9.978;2024-01-06T07:02:13;16.23;;;8.87;;
7160;SDS011;3622;53.576;9.978;2024-01-06T07:04:39;12.60;;;6.80;;
7160;SDS011;3622;53.576;9.978;2024-01-06T07:07:05;14.20;;;7.70;;
7160;SDS011;3622;53.576;9.978;2024-01-06T07:09:31;14.70;;;7.47;;
7160;SDS011;3622;53.576;9.978;2024-01-06T07:11:57;13.80;;;7.50;;
7160;SDS011;3622;53.576;9.978;2024-01-06T07:14:23;14.40;;;7.80;;
7160;SDS011;3622;53.576;9.978;2024-01-06T07:16:49;13.70;;;8.17;;
7160;SDS011;3622;53.576;9.978;2024-01-06T07:19:15;13.23;;;7.60;;
7160;SDS011;3622;53.576;9.978;2024-01-06T07:21:41;14.03;;;7.73;;
7160;SDS011;3622;53.576;9.978;2024-01-06T07:24:07;16.33;;;8.40;;
7160;SDS011;3622;53.576;9.978;2024-01-06T07:26:33;14.03;;;7.47;;
7160;SDS011;3622;53.576;9.978;2024-01-06T07:28:59;17.73;;;8.93;;
7160;SDS011;3622;53.576;9.978;2024-01-06T07:31:25;12.60;;;7.13;;
7160;SDS011;3622;53.576;9.978;2024-01-06T07:33:51;12.80;;;8.10;;
7160;SDS011;3622;53.576;9.978;2024-01-06T07:36:17;14.00;;;7.33;;
7160;SDS011;3622;53.576;9.978;2024-01-06T07:38:43;16.13;;;8.83;;
7160;SDS011;3622;53.576;9.978;2024-01-06T07:41:10;14.90;;;7.67;;
7160;SDS011;3622;53.576;9.978;2024-01-06T07:43:36;8.03;;;5.00;;
7160;SDS011;3622;53.576;9.978;2024-01-06T07:46:02;14.77;;;6.53;;
7160;SDS011;3622;53.576;9.978;2024-01-06T07:48:29;9.47;;;5.40;;
7160;SDS011;3622;53.576;9.978;2024-01-06T07:50:54;9.67;;;6.43;;
7160;SDS011;3622;53.576;9.978;2024-01-06T07:53:20;10.07;;;6.10;;
7160;SDS011;3622;53.576;9.978;2024-01-06T07:55:46;16.80;;;7.50;;
7160;SDS011;3622;53.576;9.978;2024-01-06T07:58:12;11.03;;;5.73;;
7160;SDS011;3622;53.576;9.978;2024-01-06T08:00:38;13.33;;;7.50;;
7160;SDS011;3622;53.576;9.978;2024-01-06T08:03:04;13.70;;;7.67;;
7160;SDS011;3622;53.576;9.978;2024-01-06T08:05:31;8.93;;;6.03;;
7160;SDS011;3622;53.576;9.978;2024-01-06T08:07:57;13.33;;;7.77;;
7160;SDS011;3622;53.576;9.978;2024-01-06T08:10:23;11.77;;;7.63;;
7160;SDS011;3622;53.576;9.978;2024-01-06T08:12:49;10.77;;;6.33;;
7160;SDS011;3622;53.576;9.978;2024-01-06T08:15:15;10.80;;;7.20;;
7160;SDS011;3622;53.576;9.978;2024-01-06T08:17:41;11.50;;;6.53;;
7160;SDS011;3622;53.576;9.978;2024-01-06T08:20:08;10.23;;;6.20;;
7160;SDS011;3622;53.576;9.978;2024-01-06T08:22:34;15.00;;;7.30;;
7160;SDS011;3622;53.576;9.978;2024-01-06T08:25:00;11.97;;;6.67;;
7160;SDS011;3622;53.576;9.978;2024-01-06T08:27:26;10.43;;;6.23;;
7160;SDS011;3622;53.576;9.978;2024-01-06T08:29:52;9.33;;;6.20;;
7160;SDS011;3622;53.576;9.978;2024-01-06T08:32:18;12.37;;;6.27;;
7160;SDS011;3622;53.576;9.978;2024-01-06T08:34:44;9.90;;;5.93;;
7160;SDS011;3622;53.576;9.978;2024-01-06T08:37:09;12.40;;;6.10;;
7160;SDS011;3622;53.576;9.978;2024-01-06T08:39:35;13.70;;;6.30;;
7160;SDS011;3622;53.576;9.978;2024-01-06T08:42:01;11.10;;;6.70;;
7160;SDS011;3622;53.576;9.978;2024-01-06T08:44:28;15.00;;;7.03;;
7160;SDS011;3622;53.576;9.978;2024-01-06T08:46:54;14.53;;;6.10;;
7160;SDS011;3622;53.576;9.978;2024-01-06T08:49:21;11.17;;;6.60;;
7160;SDS011;3622;53.576;9.978;2024-01-06T08:51:46;11.87;;;6.77;;
7160;SDS011;3622;53.576;9.978;2024-01-06T08:54:12;7.27;;;5.20;;
7160;SDS011;3622;53.576;9.978;2024-01-06T08:56:38;12.70;;;5.80;;
7160;SDS011;3622;53.576;9.978;2024-01-06T08:59:05;7.50;;;5.20;;
7160;SDS011;3622;53.576;9.978;2024-01-06T09:01:30;14.23;;;7.47;;
7160;SDS011;3622;53.576;9.978;2024-01-06T09:03:57;11.87;;;6.60;;
7160;SDS011;3622;53.576;9.978;2024-01-06T09:06:23;5.67;;;4.13;;
7160;SDS011;3622;53.576;9.978;2024-01-06T09:08:49;12.33;;;6.30;;
7160;SDS011;3622;53.576;9.978;2024-01-06T09:11:15;15.00;;;7.87;;
7160;SDS011;3622;53.576;9.978;2024-01-06T09:13:41;16.73;;;7.10;;
7160;SDS011;3622;53.576;9.978;2024-01-06T09:16:07;11.70;;;5.23;;
7160;SDS011;3622;53.576;9.978;2024-01-06T09:18:33;13.30;;;6.67;;
7160;SDS011;3622;53.576;9.978;2024-01-06T09:20:59;10.23;;;6.20;;
7160;SDS011;3622;53.576;9.978;2024-01-06T09:23:25;13.43;;;6.80;;
7160;SDS011;3622;53.576;9.978;2024-01-06T09:25:51;8.50;;;5.73;;
7160;SDS011;3622;53.576;9.978;2024-01-06T09:28:17;6.83;;;5.17;;
7160;SDS011;3622;53.576;9.978;2024-01-06T09:30:43;11.30;;;6.67;;
7160;SDS011;3622;53.576;9.978;2024-01-06T09:33:09;16.17;;;7.27;;
7160;SDS011;3622;53.576;9.978;2024-01-06T09:35:35;7.47;;;4.80;;
7160;SDS011;3622;53.576;9.978;2024-01-06T09:38:01;11.13;;;6.90;;
7160;SDS011;3622;53.576;9.978;2024-01-06T09:40:27;11.10;;;6.23;;
7160;SDS011;3622;53.576;9.978;2024-01-06T09:42:57;11.93;;;7.53;;
7160;SDS011;3622;53.576;9.978;2024-01-06T09:45:23;12.30;;;6.10;;
7160;SDS011;3622;53.576;9.978;2024-01-06T09:47:50;16.03;;;7.97;;
7160;SDS011;3622;53.576;9.978;2024-01-06T09:50:19;11.20;;;6.57;;
7160;SDS011;3622;53.576;9.978;2024-01-06T09:52:45;10.20;;;6.20;;
7160;SDS011;3622;53.576;9.978;2024-01-06T09:55:18;9.43;;;5.97;;
7160;SDS011;3622;53.576;9.978;2024-01-06T09:57:47;12.07;;;6.10;;
7160;SDS011;3622;53.576;9.978;2024-01-06T10:00:13;12.97;;;6.67;;
7160;SDS011;3622;53.576;9.978;2024-01-06T10:02:39;10.10;;;6.50;;
7160;SDS011;3622;53.576;9.978;2024-01-06T10:05:06;13.27;;;6.87;;
7160;SDS011;3622;53.576;9.978;2024-01-06T10:07:32;11.87;;;6.73;;
7160;SDS011;3622;53.576;9.978;2024-01-06T10:09:58;13.13;;;6.90;;
7160;SDS011;3622;53.576;9.978;2024-01-06T10:12:25;14.53;;;7.60;;
7160;SDS011;3622;53.576;9.978;2024-01-06T10:14:51;10.67;;;6.90;;
7160;SDS011;3622;53.576;9.978;2024-01-06T10:17:17;8.80;;;6.50;;
7160;SDS011;3622;53.576;9.978;2024-01-06T10:19:44;14.63;;;6.80;;
7160;SDS011;3622;53.576;9.978;2024-01-06T10:22:10;11.73;;;7.00;;
7160;SDS011;3622;53.576;9.978;2024-01-06T10:24:37;9.87;;;6.00;;
7160;SDS011;3622;53.576;9.978;2024-01-06T10:27:03;7.23;;;5.23;;
7160;SDS011;3622;53.576;9.978;2024-01-06T10:29:29;13.17;;;7.17;;
7160;SDS011;3622;53.576;9.978;2024-01-06T10:31:55;7.10;;;5.17;;
7160;SDS011;3622;53.576;9.978;2024-01-06T10:34:24;15.27;;;7.90;;
7160;SDS011;3622;53.576;9.978;2024-01-06T10:36:50;9.73;;;6.53;;
7160;SDS011;3622;53.576;9.978;2024-01-06T10:39:20;11.07;;;6.83;;
7160;SDS011;3622;53.576;9.978;2024-01-06T10:41:49;14.70;;;7.20;;
7160;SDS011;3622;53.576;9.978;2024-01-06T10:44:16;5.80;;;4.03;;
7160;SDS011;3622;53.576;9.978;2024-01-06T10:46:43;10.60;;;6.33;;
7160;SDS011;3622;53.576;9.978;2024-01-06T10:49:10;11.90;;;5.87;;
7160;SDS011;3622;53.576;9.978;2024-01-06T10:51:39;11.60;;;7.33;;
7160;SDS011;3622;53.576;9.978;2024-01-06T10:54:06;12.60;;;7.60;;
7160;SDS011;3622;53.576;9.978;2024-01-06T10:56:36;12.00;;;6.93;;
7160;SDS011;3622;53.576;9.978;2024-01-06T10:59:03;10.27;;;6.07;;
7160;SDS011;3622;53.576;9.978;2024-01-06T11:01:29;10.20;;;6.10;;
7160;SDS011;3622;53.576;9.978;2024-01-06T11:03:55;6.80;;;5.10;;
7160;SDS011;3622;53.576;9.978;2024-01-06T11:06:21;6.03;;;3.57;;
7160;SDS011;3622;53.576;9.978;2024-01-06T11:08:49;16.30;;;6.80;;
7160;SDS011;3622;53.576;9.978;2024-01-06T11:11:16;12.50;;;5.97;;
7160;SDS011;3622;53.576;9.978;2024-01-06T11:13:43;7.20;;;4.93;;
7160;SDS011;3622;53.576;9.978;2024-01-06T11:16:10;6.80;;;4.67;;
7160;SDS011;3622;53.576;9.978;2024-01-06T11:23:37;11.03;;;6.00;;
7160;SDS011;3622;53.576;9.978;2024-01-06T11:26:03;8.03;;;4.80;;
7160;SDS011;3622;53.576;9.978;2024-01-06T11:28:31;8.23;;;4.63;;
7160;SDS011;3622;53.576;9.978;2024-01-06T11:31:08;6.50;;;5.13;;
7160;SDS011;3622;53.576;9.978;2024-01-06T11:33:40;7.20;;;3.80;;
7160;SDS011;3622;53.576;9.978;2024-01-06T11:36:08;10.70;;;4.90;;
7160;SDS011;3622;53.576;9.978;2024-01-06T11:38:38;8.67;;;5.80;;
7160;SDS011;3622;53.576;9.978;2024-01-06T11:41:06;10.73;;;5.53;;
7160;SDS011;3622;53.576;9.978;2024-01-06T11:43:33;13.97;;;6.57;;
7160;SDS011;3622;53.576;9.978;2024-01-06T11:46:00;5.07;;;3.63;;
7160;SDS011;3622;53.576;9.978;2024-01-06T11:48:28;8.47;;;5.43;;
7160;SDS011;3622;53.576;9.978;2024-01-06T11:50:56;7.70;;;5.23;;
7160;SDS011;3622;53.576;9.978;2024-01-06T11:53:23;10.30;;;5.10;;
7160;SDS011;3622;53.576;9.978;2024-01-06T11:55:52;12.00;;;4.53;;
7160;SDS011;3622;53.576;9.978;2024-01-06T11:58:18;6.73;;;4.90;;
7160;SDS011;3622;53.576;9.978;2024-01-06T12:00:45;9.40;;;6.00;;
7160;SDS011;3622;53.576;9.978;2024-01-06T12:03:20;13.80;;;6.83;;
7160;SDS011;3622;53.576;9.978;2024-01-06T12:05:46;9.50;;;5.53;;
7160;SDS011;3622;53.576;9.978;2024-01-06T12:08:24;3.20;;;2.83;;
7160;SDS011;3622;53.576;9.978;2024-01-06T12:10:50;7.63;;;5.03;;
7160;SDS011;3622;53.576;9.978;2024-01-06T12:13:16;6.03;;;4.80;;
7160;SDS011;3622;53.576;9.978;2024-01-06T12:15:42;12.83;;;6.43;;
7160;SDS011;3622;53.576;9.978;2024-01-06T12:18:08;10.30;;;4.63;;
7160;SDS011;3622;53.576;9.978;2024-01-06T12:20:34;8.10;;;5.30;;
7160;SDS011;3622;53.576;9.978;2024-01-06T12:23:00;5.37;;;4.23;;
7160;SDS011;3622;53.576;9.978;2024-01-06T12:25:30;10.90;;;5.00;;
7160;SDS011;3622;53.576;9.978;2024-01-06T12:28:00;4.43;;;3.17;;
7160;SDS011;3622;53.576;9.978;2024-01-06T12:30:27;4.20;;;3.77;;
7160;SDS011;3622;53.576;9.978;2024-01-06T12:32:55;6.07;;;3.50;;
7160;SDS011;3622;53.576;9.978;2024-01-06T12:35:21;5.80;;;3.90;;
7160;SDS011;3622;53.576;9.978;2024-01-06T12:37:47;4.43;;;3.00;;
7160;SDS011;3622;53.576;9.978;2024-01-06T12:40:13;6.27;;;4.40;;
7160;SDS011;3622;53.576;9.978;2024-01-06T12:42:41;6.60;;;4.60;;
7160;SDS011;3622;53.576;9.978;2024-01-06T12:45:08;4.93;;;4.40;;
7160;SDS011;3622;53.576;9.978;2024-01-06T12:47:35;5.00;;;4.10;;
7160;SDS011;3622;53.576;9.978;2024-01-06T12:50:01;8.00;;;4.73;;
7160;SDS011;3622;53.576;9.978;2024-01-06T12:52:27;3.90;;;3.60;;
7160;SDS011;3622;53.576;9.978;2024-01-06T12:54:53;5.30;;;3.93;;
7160;SDS011;3622;53.576;9.978;2024-01-06T12:57:19;5.90;;;4.10;;
7160;SDS011;3622;53.576;9.978;2024-01-06T12:59:45;4.30;;;3.47;;
7160;SDS011;3622;53.576;9.978;2024-01-06T13:02:11;3.40;;;3.07;;
7160;SDS011;3622;53.576;9.978;2024-01-06T13:04:37;5.27;;;4.37;;
7160;SDS011;3622;53.576;9.978;2024-01-06T13:07:03;8.10;;;4.37;;
7160;SDS011;3622;53.576;9.978;2024-01-06T13:09:29;5.87;;;4.40;;
7160;SDS011;3622;53.576;9.978;2024-01-06T13:11:55;3.60;;;3.30;;
7160;SDS011;3622;53.576;9.978;2024-01-06T13:14:25;4.00;;;3.60;;
7160;SDS011;3622;53.576;9.978;2024-01-06T13:16:51;7.20;;;3.87;;
7160;SDS011;3622;53.576;9.978;2024-01-06T13:19:17;5.63;;;3.73;;
7160;SDS011;3622;53.576;9.978;2024-01-06T13:21:44;3.40;;;2.23;;
7160;SDS011;3622;53.576;9.978;2024-01-06T13:24:10;3.93;;;3.50;;
7160;SDS011;3622;53.576;9.978;2024-01-06T13:26:37;4.23;;;3.47;;
7160;SDS011;3622;53.576;9.978;2024-01-06T13:29:03;4.20;;;3.77;;
7160;SDS011;3622;53.576;9.978;2024-01-06T13:31:29;3.47;;;2.60;;
7160;SDS011;3622;53.576;9.978;2024-01-06T13:33:56;6.20;;;3.73;;
7160;SDS011;3622;53.576;9.978;2024-01-06T13:36:22;6.73;;;3.67;;
7160;SDS011;3622;53.576;9.978;2024-01-06T13:38:48;7.20;;;4.27;;
7160;SDS011;3622;53.576;9.978;2024-01-06T13:41:14;5.13;;;3.57;;
7160;SDS011;3622;53.576;9.978;2024-01-06T13:43:40;2.67;;;2.47;;
7160;SDS011;3622;53.576;9.978;2024-01-06T13:46:06;4.27;;;3.50;;
7160;SDS011;3622;53.576;9.978;2024-01-06T13:48:32;5.47;;;3.97;;
7160;SDS011;3622;53.576;9.978;2024-01-06T13:50:58;6.70;;;3.93;;
7160;SDS011;3622;53.576;9.978;2024-01-06T13:53:24;3.83;;;3.50;;
7160;SDS011;3622;53.576;9.978;2024-01-06T13:55:50;4.90;;;3.53;;
7160;SDS011;3622;53.576;9.978;2024-01-06T13:58:17;6.30;;;4.30;;
7160;SDS011;3622;53.576;9.978;2024-01-06T14:00:44;5.70;;;4.10;;
7160;SDS011;3622;53.576;9.978;2024-01-06T14:03:10;3.80;;;3.47;;
7160;SDS011;3622;53.576;9.978;2024-01-06T14:05:36;4.33;;;3.93;;
7160;SDS011;3622;53.576;9.978;2024-01-06T14:08:02;3.83;;;3.43;;
7160;SDS011;3622;53.576;9.978;2024-01-06T14:10:28;5.03;;;3.47;;
7160;SDS011;3622;53.576;9.978;2024-01-06T14:12:56;5.43;;;3.40;;
7160;SDS011;3622;53.576;9.978;2024-01-06T14:15:22;6.77;;;3.50;;
7160;SDS011;3622;53.576;9.978;2024-01-06T14:17:48;5.27;;;4.07;;
7160;SDS011;3622;53.576;9.978;2024-01-06T14:20:14;4.50;;;3.60;;
7160;SDS011;3622;53.576;9.978;2024-01-06T14:22:42;3.37;;;3.07;;
7160;SDS011;3622;53.576;9.978;2024-01-06T14:25:08;6.37;;;4.07;;
7160;SDS011;3622;53.576;9.978;2024-01-06T14:27:34;4.07;;;3.70;;
7160;SDS011;3622;53.576;9.978;2024-01-06T14:30:00;4.70;;;3.80;;
7160;SDS011;3622;53.576;9.978;2024-01-06T14:32:26;4.23;;;3.53;;
7160;SDS011;3622;53.576;9.978;2024-01-06T14:34:52;4.00;;;3.60;;
7160;SDS011;3622;53.576;9.978;2024-01-06T14:37:18;3.80;;;3.50;;
7160;SDS011;3622;53.576;9.978;2024-01-06T14:39:44;3.70;;;3.00;;
7160;SDS011;3622;53.576;9.978;2024-01-06T14:42:10;4.67;;;3.93;;
7160;SDS011;3622;53.576;9.978;2024-01-06T14:44:36;3.33;;;3.03;;
7160;SDS011;3622;53.576;9.978;2024-01-06T14:47:02;4.30;;;3.00;;
7160;SDS011;3622;53.576;9.978;2024-01-06T14:49:28;4.03;;;3.13;;
7160;SDS011;3622;53.576;9.978;2024-01-06T14:51:54;5.80;;;4.37;;
7160;SDS011;3622;53.576;9.978;2024-01-06T14:54:20;7.00;;;4.40;;
7160;SDS011;3622;53.576;9.978;2024-01-06T14:56:46;4.07;;;3.67;;
7160;SDS011;3622;53.576;9.978;2024-01-06T14:59:12;4.37;;;3.70;;
7160;SDS011;3622;53.576;9.978;2024-01-06T15:01:41;6.70;;;3.67;;
7160;SDS011;3622;53.576;9.978;2024-01-06T15:04:08;3.47;;;3.20;;
7160;SDS011;3622;53.576;9.978;2024-01-06T15:06:34;4.10;;;3.70;;
7160;SDS011;3622;53.576;9.978;2024-01-06T15:09:00;6.50;;;3.70;;